Time;durP1;ratioP1;P1;durP2;ratioP2;P2;SDS_P1;SDS_P2;PMS_P1;PMS_P2;Temp;Humidity;BMP_temperature;BMP_pressure;BME280_temperature;BME280_humidity;BME280_pressure;Samples;Min_cycle;Max_cycle;Signal;HPM_P1;HPM_P2
2023/08/17 00:05:21;;;;;;;12.00;8.70;;;;;;;21.88;96.10;99331.85;273522;1269;22150;-81
2023/08/17 00:11:23;;;;;;;10.10;7.70;;;;;;;21.86;97.02;99335.59;273553;1266;22303;-82
2023/08/17 00:17:28;;;;;;;9.30;7.50;;;;;;;21.83;97.08;99335.83;273646;1267;22197;-81
2023/08/17 00:23:30;;;;;;;11.30;7.60;;;;;;;21.82;97.39;99340.56;273637;1269;22203;-82
2023/08/17 00:29:32;;;;;;;9.10;7.40;;;;;;;21.81;97.93;99340.50;272454;1269;22534;-81
2023/08/17 00:35:34;;;;;;;19.50;9.70;;;;;;;21.79;98.47;99334.82;273533;1267;22414;-82
2023/08/17 00:41:59;;;;;;;15.50;9.40;;;;;;;21.77;98.53;99331.95;273682;1269;22479;-81
2023/08/17 00:48:01;;;;;;;11.40;8.90;;;;;;;21.63;98.90;99325.95;273503;1267;22272;-81
2023/08/17 00:54:04;;;;;;;14.30;10.70;;;;;;;21.55;99.17;99329.58;273946;1275;22247;-80
2023/08/17 01:00:07;;;;;;;12.50;10.20;;;;;;;21.48;99.38;99328.83;273961;1267;22942;-81
2023/08/17 01:06:10;;;;;;;16.90;10.00;;;;;;;21.46;99.74;99329.05;273520;1267;22174;-81
2023/08/17 01:12:42;;;;;;;11.50;8.80;;;;;;;21.44;99.90;99325.61;273731;1269;22178;-81
2023/08/17 01:19:06;;;;;;;14.30;10.00;;;;;;;21.35;100.00;99325.46;274021;1273;22192;-81
2023/08/17 01:25:08;;;;;;;11.80;9.50;;;;;;;21.27;100.00;99333.13;273493;1267;22174;-82
2023/08/17 01:31:25;;;;;;;12.00;9.20;;;;;;;21.13;100.00;99340.33;273751;1267;22205;-81
2023/08/17 01:37:29;;;;;;;11.40;9.10;;;;;;;21.05;100.00;99340.38;273992;1273;22147;-81
2023/08/17 01:43:34;;;;;;;14.30;8.70;;;;;;;21.06;100.00;99343.46;273579;1267;22407;-82
2023/08/17 01:49:36;;;;;;;13.20;9.20;;;;;;;21.06;100.00;99354.28;273498;1267;22314;-82
2023/08/17 01:55:59;;;;;;;16.90;9.70;;;;;;;21.01;100.00;99356.41;273690;1267;22206;-81
2023/08/17 02:02:17;;;;;;;13.10;9.10;;;;;;;21.00;100.00;99357.71;272666;1267;22543;-82
2023/08/17 02:08:19;;;;;;;12.90;9.40;;;;;;;20.98;100.00;99357.11;272553;1267;22541;-82
2023/08/17 02:14:21;;;;;;;11.40;9.40;;;;;;;20.93;100.00;99354.04;270125;1267;143219;-83
2023/08/17 02:20:41;;;;;;;10.80;8.90;;;;;;;20.84;100.00;99345.98;270292;1266;22569;-82
2023/08/17 02:26:43;;;;;;;11.30;9.50;;;;;;;20.71;100.00;99342.83;273492;1267;22329;-83
2023/08/17 02:32:45;;;;;;;12.00;9.30;;;;;;;20.59;100.00;99348.19;273944;1269;22161;-83
2023/08/17 02:38:47;;;;;;;13.30;8.90;;;;;;;20.49;100.00;99354.62;273604;1267;22204;-83
2023/08/17 02:44:49;;;;;;;14.40;9.60;;;;;;;20.47;100.00;99358.49;273374;1267;22922;-83
2023/08/17 02:50:51;;;;;;;12.90;10.20;;;;;;;20.47;100.00;99354.59;273584;1267;22235;-82
2023/08/17 02:57:03;;;;;;;13.10;9.30;;;;;;;20.37;100.00;99346.08;273631;1267;23453;-82
2023/08/17 03:03:26;;;;;;;17.90;10.40;;;;;;;20.29;100.00;99351.35;273584;1267;22314;-82
2023/08/17 03:09:48;;;;;;;12.20;10.90;;;;;;;20.25;100.00;99360.96;273616;1267;23597;-82
2023/08/17 03:16:30;;;;;;;15.90;11.40;;;;;;;20.21;100.00;99367.55;273711;1267;22901;-83
2023/08/17 03:22:34;;;;;;;15.40;12.10;;;;;;;20.25;100.00;99377.81;273761;1267;23335;-82
2023/08/17 03:28:36;;;;;;;11.80;10.00;;;;;;;20.19;100.00;99385.17;270874;1267;24218;-83
2023/08/17 03:34:40;;;;;;;13.30;11.30;;;;;;;20.25;100.00;99385.91;273666;1266;22384;-82
2023/08/17 03:40:43;;;;;;;14.80;12.20;;;;;;;20.28;100.00;99391.88;271549;1266;22547;-82
2023/08/17 03:46:45;;;;;;;17.60;12.90;;;;;;;20.21;100.00;99396.22;270627;1266;22556;-81
2023/08/17 03:53:08;;;;;;;15.70;13.00;;;;;;;20.13;100.00;99401.30;271450;1266;22615;-82
2023/08/17 03:59:31;;;;;;;19.70;13.00;;;;;;;20.14;100.00;99404.08;270487;1266;23951;-82
2023/08/17 04:05:33;;;;;;;11.80;10.20;;;;;;;20.17;100.00;99408.72;271833;1266;22421;-83
2023/08/17 04:11:36;;;;;;;15.10;10.30;;;;;;;20.21;100.00;99410.38;272837;1266;22423;-83
2023/08/17 04:18:06;;;;;;;15.40;11.20;;;;;;;20.25;100.00;99412.67;273555;1267;23583;-83
2023/08/17 04:24:11;;;;;;;14.00;10.60;;;;;;;20.26;100.00;99413.13;272267;1267;22329;-84
2023/08/17 04:30:13;;;;;;;16.50;11.60;;;;;;;20.30;100.00;99410.26;271765;1266;22556;-83
2023/08/17 04:36:23;;;;;;;16.20;11.20;;;;;;;20.35;100.00;99409.45;271044;1267;22534;-83
2023/08/17 04:42:45;;;;;;;11.30;9.60;;;;;;;20.37;100.00;99404.40;271695;1267;23061;-83
2023/08/17 04:49:07;;;;;;;14.60;10.00;;;;;;;20.37;100.00;99404.86;273282;1267;22167;-83
2023/08/17 04:55:10;;;;;;;10.50;9.00;;;;;;;20.42;100.00;99417.88;272012;1266;22697;-83
2023/08/17 05:01:32;;;;;;;10.10;8.70;;;;;;;20.50;100.00;99427.55;271384;1267;22670;-83
2023/08/17 05:07:46;;;;;;;10.70;9.60;;;;;;;20.52;100.00;99427.59;273584;1267;23410;-83
2023/08/17 05:13:48;;;;;;;15.60;10.10;;;;;;;20.50;100.00;99432.15;272944;1267;23195;-83
2023/08/17 05:19:51;;;;;;;11.90;10.60;;;;;;;20.51;100.00;99426.31;273538;1266;23099;-83
2023/08/17 05:25:54;;;;;;;16.20;10.00;;;;;;;20.56;100.00;99428.52;273551;1267;23115;-83
2023/08/17 05:32:16;;;;;;;14.80;10.00;;;;;;;20.62;100.00;99427.90;273720;1267;22355;-83
2023/08/17 05:38:38;;;;;;;12.80;9.80;;;;;;;20.68;100.00;99426.42;273511;1267;23536;-83
2023/08/17 05:45:00;;;;;;;12.10;9.40;;;;;;;20.75;100.00;99428.33;273550;1267;23678;-84
2023/08/17 05:51:03;;;;;;;11.30;9.40;;;;;;;20.77;100.00;99428.50;273786;1267;22350;-84
2023/08/17 05:57:06;;;;;;;12.20;9.20;;;;;;;20.79;100.00;99426.95;272393;1266;22714;-83
2023/08/17 06:03:09;;;;;;;16.30;9.10;;;;;;;20.89;100.00;99432.13;271099;1267;22408;-82
2023/08/17 06:09:27;;;;;;;;;;;;;;;;;;;;;
2023/08/17 06:15:36;;;;;;;13.60;9.10;;;;;;;21.24;100.00;99432.09;272013;1267;22670;-83
2023/08/17 06:21:38;;;;;;;14.90;8.80;;;;;;;21.49;100.00;99438.94;271652;1267;22609;-83
2023/08/17 06:27:44;;;;;;;19.00;10.50;;;;;;;21.71;100.00;99436.92;270095;1267;24696;-83
2023/08/17 06:34:08;;;;;;;18.30;10.80;;;;;;;21.98;100.00;99433.24;270185;1267;22478;-83
2023/08/17 06:40:10;;;;;;;15.80;10.30;;;;;;;22.30;100.00;99433.21;271473;1268;23109;-83
2023/08/17 06:46:12;;;;;;;18.80;11.00;;;;;;;22.48;100.00;99435.39;269881;1260;22553;-82
2023/08/17 06:52:14;;;;;;;18.50;9.70;;;;;;;22.57;100.00;99435.86;273253;1267;22488;-82
2023/08/17 06:58:16;;;;;;;14.90;10.10;;;;;;;22.64;100.00;99432.23;273726;1267;23072;-82
2023/08/17 07:04:39;;;;;;;13.30;9.20;;;;;;;22.75;100.00;99428.05;272275;1267;22355;-82
2023/08/17 07:10:41;;;;;;;14.40;9.40;;;;;;;22.85;100.00;99428.19;273759;1266;22228;-83
2023/08/17 07:17:03;;;;;;;12.40;9.00;;;;;;;23.01;100.00;99423.39;273544;1266;23427;-82
2023/08/17 07:23:05;;;;;;;15.50;9.30;;;;;;;23.22;100.00;99416.73;273693;1266;23046;-83
2023/08/17 07:29:06;;;;;;;11.70;8.20;;;;;;;23.42;100.00;99415.51;273697;1266;23375;-82
2023/08/17 07:35:15;;;;;;;16.90;7.90;;;;;;;23.63;100.00;99418.06;273806;1269;22244;-82
2023/08/17 07:41:18;;;;;;;10.10;7.60;;;;;;;23.87;100.00;99410.94;273926;1266;23362;-82
2023/08/17 07:47:20;;;;;;;12.70;7.60;;;;;;;24.04;99.96;99414.19;273175;1266;23502;-82
2023/08/17 07:54:00;;;;;;;18.80;10.20;;;;;;;24.25;99.91;99408.92;273489;1266;22206;-82
2023/08/17 08:00:03;;;;;;;11.80;8.70;;;;;;;24.56;99.04;99407.80;273667;1266;22229;-83
2023/08/17 08:06:12;;;;;;;16.10;9.50;;;;;;;24.91;98.31;99410.13;273535;1266;22157;-82
2023/08/17 08:12:14;;;;;;;10.80;8.70;;;;;;;25.23;96.84;99400.14;273644;1266;23046;-81
2023/08/17 08:18:19;;;;;;;11.90;8.30;;;;;;;25.60;95.49;99397.58;271078;1266;22454;-82
2023/08/17 08:24:20;;;;;;;14.50;8.60;;;;;;;25.89;93.84;99395.14;273380;1267;23224;-83
2023/08/17 08:30:31;;;;;;;16.00;8.50;;;;;;;26.20;93.22;99395.85;272658;1266;22524;-83
2023/08/17 08:36:33;;;;;;;14.10;8.50;;;;;;;26.37;91.21;99398.42;272110;1266;23217;-82
2023/08/17 08:42:34;;;;;;;11.00;7.70;;;;;;;26.53;89.84;99394.95;271000;1267;22259;-82
2023/08/17 08:48:38;;;;;;;14.00;8.20;;;;;;;26.69;88.61;99386.81;271788;1266;22608;-81
2023/08/17 08:54:41;;;;;;;11.70;8.60;;;;;;;26.87;87.57;99382.08;271323;1267;23028;-83
2023/08/17 09:00:46;;;;;;;10.80;7.50;;;;;;;26.98;87.26;99377.93;271821;1267;22512;-83
2023/08/17 09:06:47;;;;;;;12.10;7.50;;;;;;;27.20;86.07;99376.15;270454;1267;23122;-82
2023/08/17 09:12:49;;;;;;;13.70;7.50;;;;;;;27.60;84.90;99378.13;271798;1266;22201;-82
2023/08/17 09:18:52;;;;;;;11.10;6.70;;;;;;;28.02;83.60;99377.45;270996;1268;22348;-83
2023/08/17 09:24:54;;;;;;;8.90;6.80;;;;;;;28.37;81.80;99371.52;271676;1269;22345;-82
2023/08/17 09:30:58;;;;;;;11.20;7.00;;;;;;;28.82;80.61;99369.47;270320;1269;23861;-82
2023/08/17 09:37:04;;;;;;;7.60;6.00;;;;;;;29.42;79.15;99369.66;270520;1268;23146;-83
2023/08/17 09:43:28;;;;;;;7.90;6.10;;;;;;;29.64;77.06;99369.44;272864;1269;22353;-81
2023/08/17 09:49:32;;;;;;;9.20;6.40;;;;;;;29.73;76.07;99368.13;273309;1261;22544;-82
2023/08/17 09:55:34;;;;;;;6.60;5.80;;;;;;;30.03;75.89;99364.66;272194;1268;22212;-82
2023/08/17 10:01:36;;;;;;;10.20;6.40;;;;;;;30.71;74.94;99361.89;273404;1269;22392;-82
2023/08/17 10:08:01;;;;;;;8.70;5.40;;;;;;;31.09;72.71;99353.84;273224;1269;22196;-82
2023/08/17 10:14:10;;;;;;;7.90;5.40;;;;;;;30.65;69.71;99349.67;273435;1267;22188;-82
2023/08/17 10:20:13;;;;;;;7.10;4.80;;;;;;;29.94;67.86;99359.12;272740;1266;22567;-84
2023/08/17 10:26:15;;;;;;;7.90;5.80;;;;;;;29.25;68.18;99360.77;273003;1267;22409;-82
2023/08/17 10:32:33;;;;;;;6.90;4.70;;;;;;;28.72;69.24;99366.49;273592;1267;22195;-83
2023/08/17 10:38:37;;;;;;;6.90;4.90;;;;;;;28.23;70.02;99374.34;273913;1268;22181;-83
2023/08/17 10:44:47;;;;;;;6.80;5.00;;;;;;;27.89;70.35;99387.25;273061;1267;22195;-82
2023/08/17 10:51:17;;;;;;;10.50;5.80;;;;;;;27.64;70.68;99395.66;273546;1267;22124;-82
2023/08/17 10:57:30;;;;;;;8.60;5.30;;;;;;;27.49;70.85;99401.85;273410;1267;22200;-82
2023/08/17 11:03:33;;;;;;;7.90;5.60;;;;;;;27.38;71.59;99406.45;273400;1267;22300;-81
2023/08/17 11:09:42;;;;;;;5.80;3.80;;;;;;;27.19;70.25;99409.89;271093;1268;22810;-82
2023/08/17 11:15:44;;;;;;;3.20;2.50;;;;;;;26.77;68.58;99417.13;273754;1267;22121;-82
2023/08/17 11:21:51;;;;;;;6.30;2.30;;;;;;;26.37;66.77;99425.67;269958;1267;22606;-81
2023/08/17 11:28:14;;;;;;;3.80;2.20;;;;;;;26.18;66.30;99427.13;271060;1267;23031;-82
2023/08/17 11:34:15;;;;;;;3.80;2.20;;;;;;;26.03;66.52;99427.04;269533;1267;23987;-81
2023/08/17 11:40:17;;;;;;;5.00;2.40;;;;;;;25.94;67.05;99425.11;268202;1267;22352;-84
2023/08/17 11:46:25;;;;;;;3.80;2.50;;;;;;;25.99;67.53;99421.70;271494;1267;24219;-82
2023/08/17 11:52:27;;;;;;;2.50;2.20;;;;;;;26.25;67.20;99428.08;272605;1267;24230;-81
2023/08/17 11:58:55;;;;;;;3.70;1.90;;;;;;;26.38;66.48;99437.09;271119;1267;22306;-82
2023/08/17 12:04:57;;;;;;;4.50;2.70;;;;;;;26.26;66.42;99466.20;273515;1259;22126;-81
2023/08/17 12:11:02;;;;;;;5.40;2.80;;;;;;;25.86;66.49;99485.75;273735;1266;22331;-81
2023/08/17 12:17:04;;;;;;;4.10;2.70;;;;;;;25.43;66.68;99476.83;273537;1266;23054;-80
2023/08/17 12:23:06;;;;;;;4.60;2.60;;;;;;;25.06;67.03;99456.98;273403;1266;23332;-80
2023/08/17 12:29:09;;;;;;;2.80;2.00;;;;;;;24.80;67.18;99479.27;273586;1266;22191;-80
2023/08/17 12:35:11;;;;;;;5.30;2.40;;;;;;;24.54;66.68;99514.46;273628;1260;22305;-83
2023/08/17 14:25:43;;;;;;;4.90;4.00;;;;;;;20.98;98.53;99415.70;264030;1305;544895;-90
2023/08/17 14:31:45;;;;;;;9.00;4.10;;;;;;;21.00;99.68;99421.30;268016;1280;22539;-91
2023/08/17 14:37:46;;;;;;;6.50;4.70;;;;;;;21.08;99.90;99412.84;269778;1277;220880;-90
2023/08/17 14:43:48;;;;;;;6.60;4.60;;;;;;;21.16;100.00;99403.90;269919;1278;23098;-88
2023/08/17 14:49:50;;;;;;;7.00;4.00;;;;;;;21.24;100.00;99397.26;271515;1279;22428;-89
2023/08/17 14:55:52;;;;;;;5.20;4.00;;;;;;;21.33;100.00;99404.33;271594;1279;22191;-90
2023/08/17 15:01:56;;;;;;;4.70;3.90;;;;;;;21.40;100.00;99405.28;271732;1278;22315;-90
2023/08/17 15:08:02;;;;;;;4.80;3.50;;;;;;;21.40;100.00;99398.83;271372;1279;22323;-90
2023/08/17 15:14:03;;;;;;;5.30;3.60;;;;;;;21.36;100.00;99400.61;269431;1279;22614;-88
2023/08/17 15:20:06;;;;;;;4.20;3.80;;;;;;;21.30;100.00;99400.43;269636;1279;26300;-89
2023/08/17 15:26:07;;;;;;;6.20;3.50;;;;;;;21.22;100.00;99393.27;269350;1279;22550;-88
2023/08/17 15:32:09;;;;;;;3.90;3.20;;;;;;;21.14;100.00;99387.09;269732;1279;22322;-88
2023/08/17 15:38:11;;;;;;;4.20;3.60;;;;;;;21.03;100.00;99386.25;270464;1279;23601;-87
2023/08/17 15:44:13;;;;;;;5.30;3.60;;;;;;;20.96;100.00;99375.38;271687;1279;22287;-88
2023/08/17 15:50:15;;;;;;;3.90;3.60;;;;;;;20.97;100.00;99371.68;271586;1276;22315;-89
2023/08/17 15:56:17;;;;;;;6.00;3.90;;;;;;;20.94;100.00;99368.16;269281;1277;22538;-88
2023/08/17 16:02:19;;;;;;;4.60;3.60;;;;;;;20.85;100.00;99369.19;267991;1279;22562;-89
2023/08/17 16:08:21;;;;;;;5.40;3.90;;;;;;;20.73;100.00;99382.82;268337;1279;22328;-88
2023/08/17 16:14:22;;;;;;;6.80;3.80;;;;;;;20.67;100.00;99380.34;271557;1272;23507;-87
2023/08/17 16:20:25;;;;;;;4.10;3.60;;;;;;;20.66;100.00;99369.55;271919;1275;22378;-86
2023/08/17 16:26:27;;;;;;;4.50;3.90;;;;;;;20.53;100.00;99363.92;271965;1275;22467;-86
2023/08/17 16:32:30;;;;;;;7.30;3.90;;;;;;;20.24;100.00;99373.38;271828;1272;22404;-88
2023/08/17 16:38:32;;;;;;;11.40;4.30;;;;;;;19.98;100.00;99367.16;271994;1275;22407;-89
2023/08/17 16:44:34;;;;;;;8.00;5.30;;;;;;;19.88;100.00;99341.48;270447;1275;22530;-88
2023/08/17 16:50:35;;;;;;;10.90;6.00;;;;;;;19.80;100.00;99327.44;268870;1276;24264;-88
2023/08/17 16:56:43;;;;;;;7.00;5.10;;;;;;;19.67;100.00;99344.05;269112;1276;22570;-88
2023/08/17 17:02:44;;;;;;;;;;;;;;;19.60;100.00;99346.34;269446;1275;22517;-88
2023/08/17 17:08:46;;;;;;;7.80;5.50;;;;;;;19.54;100.00;99337.83;269277;1275;24552;-88
2023/08/17 17:14:48;;;;;;;7.50;6.30;;;;;;;19.48;100.00;99319.61;269143;1275;22580;-87
2023/08/17 17:20:50;;;;;;;8.50;5.70;;;;;;;19.37;100.00;99324.90;269950;1268;22517;-87
2023/08/17 17:26:52;;;;;;;9.30;6.00;;;;;;;19.34;100.00;99327.19;269674;1276;22534;-88
2023/08/17 17:32:54;;;;;;;11.70;5.90;;;;;;;19.31;100.00;99300.05;268971;1276;22561;-87
2023/08/17 17:38:55;;;;;;;10.10;7.40;;;;;;;19.26;100.00;99257.36;268262;1270;25309;-86
2023/08/17 17:44:57;;;;;;;8.50;7.50;;;;;;;19.27;100.00;99251.02;269127;1275;22538;-87
2023/08/17 17:50:59;;;;;;;8.00;6.60;;;;;;;19.30;100.00;99268.73;268594;1275;22566;-86
2023/08/17 17:57:00;;;;;;;8.70;6.40;;;;;;;19.29;100.00;99289.83;269751;1276;25474;-86
2023/08/17 18:03:10;;;;;;;9.90;7.00;;;;;;;19.25;100.00;99284.74;269603;1259;22325;-86
2023/08/17 18:09:13;;;;;;;7.90;6.10;;;;;;;19.22;100.00;99296.05;270383;1275;22407;-86
2023/08/17 18:15:14;;;;;;;11.40;6.80;;;;;;;19.15;100.00;99294.52;272300;1276;22882;-86
2023/08/17 18:21:19;;;;;;;6.40;5.70;;;;;;;19.14;100.00;99294.48;272041;1275;22376;-85
2023/08/17 18:27:21;;;;;;;9.00;6.20;;;;;;;19.16;100.00;99292.21;272191;1276;22232;-85
2023/08/17 18:33:24;;;;;;;8.80;6.50;;;;;;;19.20;100.00;99292.84;272174;1275;22413;-85
2023/08/17 18:39:25;;;;;;;6.80;6.10;;;;;;;19.23;100.00;99295.09;271958;1275;22781;-85
2023/08/17 18:45:27;;;;;;;10.50;6.60;;;;;;;19.15;100.00;99303.31;268863;1276;22526;-86
2023/08/17 18:51:29;;;;;;;11.10;7.80;;;;;;;19.03;100.00;99329.07;255050;1275;20003421;-86
2023/08/17 18:57:31;;;;;;;11.30;7.40;;;;;;;18.92;100.00;99360.01;269994;1275;23774;-86
2023/08/17 19:03:34;;;;;;;9.10;7.70;;;;;;;18.90;100.00;99369.49;271829;1275;22326;-85
2023/08/17 19:09:36;;;;;;;9.30;7.80;;;;;;;18.95;100.00;99377.88;272270;1276;22330;-86
2023/08/17 19:15:38;;;;;;;9.80;7.30;;;;;;;18.99;100.00;99374.79;272383;1276;22250;-85
2023/08/17 19:21:39;;;;;;;9.60;7.30;;;;;;;18.99;100.00;99380.09;272307;1275;22446;-85
2023/08/17 19:27:41;;;;;;;8.00;6.60;;;;;;;19.02;100.00;99374.58;272317;1260;22410;-85
2023/08/17 19:33:42;;;;;;;10.00;6.20;;;;;;;19.00;100.00;99393.96;272346;1269;22238;-84
2023/08/17 19:39:44;;;;;;;8.00;6.90;;;;;;;19.05;100.00;99399.36;272304;1275;23141;-85
2023/08/17 19:45:46;;;;;;;9.70;6.40;;;;;;;19.04;100.00;99383.52;272368;1275;22295;-83
2023/08/17 19:51:48;;;;;;;8.30;6.10;;;;;;;19.02;100.00;99376.57;272314;1275;22200;-83
2023/08/17 19:57:49;;;;;;;8.90;6.70;;;;;;;19.04;100.00;99352.85;272339;1275;22327;-82
2023/08/17 20:03:53;;;;;;;8.10;7.00;;;;;;;18.98;100.00;99356.35;272275;1275;22430;-82
2023/08/17 20:09:55;;;;;;;12.70;6.80;;;;;;;18.89;100.00;99338.89;272264;1272;22282;-83
2023/08/17 20:15:57;;;;;;;9.90;7.70;;;;;;;18.87;100.00;99332.67;272284;1275;22213;-83
2023/08/17 20:21:59;;;;;;;12.40;7.90;;;;;;;18.88;100.00;99325.61;272319;1275;22903;-82
2023/08/17 20:28:01;;;;;;;9.50;7.50;;;;;;;18.91;100.00;99318.11;272372;1272;24614;-83
2023/08/17 20:34:03;;;;;;;14.10;7.20;;;;;;;18.92;100.00;99320.16;272295;1275;22421;-84
2023/08/17 20:40:06;;;;;;;9.60;7.60;;;;;;;18.91;100.00;99322.55;272422;1275;22577;-82
2023/08/17 20:46:08;;;;;;;13.60;7.40;;;;;;;18.89;100.00;99319.16;273283;1270;22383;-83
2023/08/17 20:52:10;;;;;;;11.70;8.10;;;;;;;18.85;100.00;99323.19;273282;1271;22365;-82
2023/08/17 20:58:12;;;;;;;10.60;7.50;;;;;;;18.81;100.00;99324.23;272441;1272;22345;-85
2023/08/17 21:04:14;;;;;;;11.50;7.80;;;;;;;18.82;100.00;99330.79;273044;1270;22434;-85
2023/08/17 21:10:16;;;;;;;9.20;7.60;;;;;;;18.78;100.00;99335.59;273378;1270;22162;-85
2023/08/17 21:16:18;;;;;;;11.50;7.90;;;;;;;18.73;100.00;99334.95;273357;1270;22214;-82
2023/08/17 21:22:19;;;;;;;12.60;8.60;;;;;;;18.65;100.00;99340.56;273136;1271;22477;-83
2023/08/17 21:28:21;;;;;;;11.10;7.80;;;;;;;18.63;100.00;99341.61;271853;1270;22556;-84
2023/08/17 21:34:24;;;;;;;15.90;8.50;;;;;;;18.61;100.00;99350.91;271761;1270;22314;-84
2023/08/17 21:40:25;;;;;;;11.90;7.30;;;;;;;18.52;100.00;99379.19;273295;1270;22197;-84
2023/08/17 21:46:27;;;;;;;10.30;8.10;;;;;;;18.54;100.00;99382.31;273098;1270;22312;-84
2023/08/17 21:52:29;;;;;;;11.40;8.60;;;;;;;18.55;100.00;99374.30;273219;1270;22328;-84
2023/08/17 21:58:31;;;;;;;12.60;8.90;;;;;;;18.55;100.00;99361.24;273218;1270;22440;-84
2023/08/17 22:04:32;;;;;;;11.90;8.40;;;;;;;18.55;100.00;99349.35;273258;1270;22185;-85
2023/08/17 22:10:34;;;;;;;9.80;8.80;;;;;;;18.56;100.00;99337.70;272568;1266;22176;-85
2023/08/17 22:16:36;;;;;;;16.60;9.70;;;;;;;18.60;100.00;99330.73;271959;1260;23688;-84
2023/08/17 22:22:38;;;;;;;14.70;9.40;;;;;;;18.62;100.00;99328.82;272469;1270;22455;-85
2023/08/17 22:28:39;;;;;;;12.90;9.10;;;;;;;18.62;100.00;99319.30;272990;1270;22410;-84
2023/08/17 22:34:41;;;;;;;11.70;9.10;;;;;;;18.65;100.00;99323.30;273155;1270;22453;-83
2023/08/17 22:40:43;;;;;;;12.20;8.70;;;;;;;18.60;100.00;99337.23;273200;1270;22339;-84
2023/08/17 22:46:46;;;;;;;12.40;8.10;;;;;;;18.61;100.00;99343.00;273196;1270;23472;-84
2023/08/17 22:52:48;;;;;;;10.80;8.40;;;;;;;18.63;100.00;99346.77;273203;1270;22324;-84
2023/08/17 22:58:50;;;;;;;14.80;9.20;;;;;;;18.65;100.00;99332.16;273247;1271;22333;-84
2023/08/17 23:04:52;;;;;;;14.60;8.30;;;;;;;18.63;100.00;99321.98;273062;1256;22439;-84
2023/08/17 23:11:00;;;;;;;14.60;8.00;;;;;;;18.64;100.00;99320.94;273181;1270;22447;-83
2023/08/17 23:17:02;;;;;;;9.60;7.90;;;;;;;18.65;100.00;99320.92;273196;1270;22416;-84
2023/08/17 23:23:04;;;;;;;10.50;7.80;;;;;;;18.65;100.00;99317.19;273213;1270;23230;-84
2023/08/17 23:29:07;;;;;;;10.30;7.90;;;;;;;18.55;100.00;99322.18;273296;1270;22308;-83
2023/08/17 23:35:09;;;;;;;11.30;8.10;;;;;;;18.49;100.00;99323.23;272709;1270;23436;-84
2023/08/17 23:41:11;;;;;;;10.30;7.30;;;;;;;18.46;100.00;99322.17;270704;1270;22551;-83
2023/08/17 23:47:12;;;;;;;9.70;7.90;;;;;;;18.36;100.00;99317.95;272886;1270;22879;-84
2023/08/17 23:53:14;;;;;;;11.80;8.40;;;;;;;18.32;100.00;99315.07;273124;1270;22326;-84
2023/08/17 23:59:16;;;;;;;17.40;8.80;;;;;;;18.32;100.00;99312.13;271773;1270;22732;-84
